Hauptseite
METAR-TAF:

METAR-TAF

Flughäfen :

Ermelo, Südafrika

Breite: 26-29-44S, Länge: 29-58-47E, Höhe: 1737 m

Beobachtung

Neuester Wetterbericht von vor 9 Stunden und 11 Minuten, um 05:48 UTC
Wind 1 kt aus West/Nordwest
Temperatur 19°C
Luftfeuchtigkeit 49%
Luftdruck 1026 hPa

METAR: FAEO 230548Z AUTO 29001KT //// // ////// 19/08 Q1026

Zeit: 16:59 (14:59 UTC)


TAF: fehlend

Wetterbeobachtungen und Prognosen von mehr als 4000 Flughäfen (METAR und TAF Bericht).

Die verfügbaren Stationen werden durch gelbe und rote Markierungen auf der Karte dargestellt.

Führen Sie die Maus auf sie, um den Namen der Station zu sehen.

Darauf klicken, um die Beobachtung von Wetterbeobachtungen und Prognosen zu sehen.

Um die Karte zu ändern : klicken Sie auf den grünen Tasten mit einem schwarzen Kreuz Zum Vergrößern, auf den grünen Button mit einem Gedankenstrich zu verkleinern, oder auf die grünen Pfeile für benachbarte Karten.


METAR-TAF: